createdAt,value
2019-04-21T00:01:24.253Z,31.48
2019-04-21T00:04:02.759Z,29.00
2019-04-21T00:06:48.164Z,35.08
2019-04-21T00:09:19.198Z,29.25
2019-04-21T00:11:47.196Z,31.97
2019-04-21T00:14:14.130Z,35.00
2019-04-21T00:16:41.512Z,29.65
2019-04-21T00:19:26.388Z,27.07
2019-04-21T00:22:01.682Z,30.62
2019-04-21T00:24:43.458Z,29.07
2019-04-21T00:27:11.149Z,35.55
2019-04-21T00:29:50.118Z,30.95
2019-04-21T00:32:16.751Z,33.23
2019-04-21T00:34:32.166Z,33.90
2019-04-21T00:37:12.143Z,34.73
2019-04-21T00:40:01.824Z,30.27
2019-04-21T00:42:22.846Z,30.70
2019-04-21T00:44:55.716Z,31.77
2019-04-21T00:47:31.664Z,35.13
2019-04-21T00:50:05.196Z,34.33
2019-04-21T00:55:23.439Z,32.08
2019-04-21T01:00:18.710Z,28.02
2019-04-21T01:02:51.171Z,34.20
2019-04-21T01:05:37.281Z,29.80
2019-04-21T01:07:45.560Z,25.35
2019-04-21T01:10:14.675Z,27.75
2019-04-21T01:12:57.705Z,31.30
2019-04-21T01:15:30.611Z,31.45
2019-04-21T01:17:57.651Z,27.40
2019-04-21T01:20:16.759Z,27.65
2019-04-21T01:22:39.531Z,29.65
2019-04-21T01:25:19.919Z,28.20
2019-04-21T01:27:53.926Z,28.60
2019-04-21T01:30:34.514Z,30.77
2019-04-21T01:33:07.598Z,26.40
2019-04-21T01:35:39.683Z,33.70
2019-04-21T01:38:32.776Z,28.92
2019-04-21T01:40:43.120Z,32.75
2019-04-21T01:43:07.788Z,32.50
2019-04-21T01:45:45.825Z,29.07
2019-04-21T01:48:11.323Z,29.52
2019-04-21T01:50:42.359Z,27.35
2019-04-21T01:53:38.423Z,30.30
2019-04-21T01:56:24.519Z,28.47
2019-04-21T01:58:46.129Z,26.75
2019-04-21T02:01:31.435Z,28.05
2019-04-21T02:04:14.076Z,28.40
2019-04-21T02:06:45.668Z,26.90
2019-04-21T02:09:02.243Z,26.33
2019-04-21T02:11:35.792Z,28.92
2019-04-21T02:16:40.719Z,27.30
2019-04-21T02:19:04.400Z,27.37
2019-04-21T02:21:36.953Z,28.20
2019-04-21T02:24:24.936Z,28.00
2019-04-21T02:26:47.475Z,26.55
2019-04-21T02:29:23.018Z,25.20
2019-04-21T02:32:05.140Z,29.57
2019-04-21T02:34:37.345Z,25.75
2019-04-21T02:37:22.939Z,25.85
2019-04-21T02:39:43.637Z,26.62
2019-04-21T02:42:05.676Z,27.80
2019-04-21T02:46:59.750Z,30.43
2019-04-21T02:50:00.289Z,25.70
2019-04-21T02:52:20.075Z,29.12
2019-04-21T02:55:01.279Z,26.75
2019-04-21T03:00:06.894Z,27.52
2019-04-21T03:05:28.803Z,28.52
2019-04-21T03:07:56.908Z,30.80
2019-04-21T03:10:38.645Z,31.05
2019-04-21T03:13:03.648Z,28.62
2019-04-21T03:15:29.206Z,29.52
2019-04-21T03:18:19.110Z,26.02
2019-04-21T03:20:35.830Z,33.40
2019-04-21T03:23:13.398Z,32.05
2019-04-21T03:25:41.955Z,32.40
2019-04-21T03:28:16.305Z,28.57
2019-04-21T03:31:06.468Z,28.87
2019-04-21T03:34:02.439Z,30.97
2019-04-21T03:36:13.054Z,30.85
2019-04-21T03:38:29.285Z,30.17
2019-04-21T03:40:44.406Z,29.80
2019-04-21T03:43:20.154Z,32.20
2019-04-21T03:45:51.414Z,34.78
2019-04-21T03:48:26.770Z,29.25
2019-04-21T03:50:56.384Z,29.25
2019-04-21T03:53:24.856Z,33.33
2019-04-21T03:58:44.922Z,28.77
2019-04-21T04:04:26.375Z,31.50
2019-04-21T04:06:43.201Z,33.60
2019-04-21T04:11:56.595Z,32.45
2019-04-21T04:16:57.175Z,30.08
2019-04-21T04:19:14.657Z,36.50
2019-04-21T04:21:57.418Z,32.78
2019-04-21T04:26:55.213Z,33.42
2019-04-21T04:29:30.050Z,33.28
2019-04-21T04:32:14.655Z,35.85
2019-04-21T04:34:49.782Z,36.60
2019-04-21T04:37:14.198Z,33.02
2019-04-21T04:44:57.091Z,35.20
2019-04-21T04:47:16.664Z,33.50
2019-04-21T04:52:27.810Z,30.30
2019-04-21T04:54:59.464Z,32.33
2019-04-21T05:00:00.496Z,34.73
2019-04-21T05:05:08.436Z,34.73
2019-04-21T05:12:29.595Z,39.45
2019-04-21T05:15:07.898Z,36.10
2019-04-21T05:17:41.492Z,32.85
2019-04-21T05:20:11.652Z,36.38
2019-04-21T05:22:51.304Z,36.60
2019-04-21T05:25:00.329Z,33.30
2019-04-21T05:27:29.611Z,31.23
2019-04-21T05:30:17.806Z,32.95
2019-04-21T05:32:48.847Z,39.58
2019-04-21T05:35:16.934Z,36.03
2019-04-21T05:37:47.282Z,34.48
2019-04-21T05:40:17.441Z,34.05
2019-04-21T05:42:52.532Z,37.65
2019-04-21T05:45:37.304Z,36.80
2019-04-21T05:48:23.209Z,32.78
2019-04-21T05:50:34.948Z,32.53
2019-04-21T05:53:19.322Z,36.93
2019-04-21T05:55:45.987Z,37.13
2019-04-21T05:58:29.920Z,33.95
2019-04-21T06:01:18.306Z,35.23
2019-04-21T06:03:31.861Z,39.55
2019-04-21T06:06:08.687Z,31.87
2019-04-21T06:08:38.933Z,37.05
2019-04-21T06:11:05.413Z,32.98
2019-04-21T06:13:45.335Z,36.38
2019-04-21T06:16:24.185Z,37.25
2019-04-21T06:18:42.081Z,34.43
2019-04-21T06:21:09.845Z,39.40
2019-04-21T06:23:40.191Z,36.03
2019-04-21T06:26:28.004Z,36.70
2019-04-21T06:28:48.061Z,35.38
2019-04-21T06:31:26.949Z,32.98
2019-04-21T06:39:06.360Z,31.73
2019-04-21T06:41:32.772Z,38.53
2019-04-21T06:44:06.071Z,39.30
2019-04-21T06:49:02.752Z,37.90
2019-04-21T06:51:32.433Z,39.67
2019-04-21T06:54:09.631Z,31.73
2019-04-21T06:56:41.348Z,33.08
2019-04-21T06:59:09.477Z,33.18
2019-04-21T07:01:48.714Z,38.00
2019-04-21T07:09:21.159Z,33.63
2019-04-21T07:11:44.974Z,31.35
2019-04-21T07:19:30.691Z,33.30
2019-04-21T07:21:51.010Z,35.25
2019-04-21T07:27:04.380Z,32.67
2019-04-21T07:29:34.742Z,40.28
2019-04-21T07:32:05.015Z,36.28
2019-04-21T07:34:36.234Z,41.10
2019-04-21T07:37:17.359Z,36.53
2019-04-21T07:39:33.576Z,34.27
2019-04-21T07:42:06.729Z,43.20
2019-04-21T07:44:37.887Z,41.33
2019-04-21T07:47:11.798Z,39.38
2019-04-21T07:49:55.215Z,39.60
2019-04-21T07:52:49.090Z,37.25
2019-04-21T07:55:21.763Z,34.65
2019-04-21T07:57:36.760Z,34.33
2019-04-21T08:00:20.990Z,42.70
2019-04-21T08:02:40.375Z,37.93
2019-04-21T08:07:57.130Z,38.42
2019-04-21T08:10:16.069Z,36.40
2019-04-21T08:12:48.202Z,33.55
2019-04-21T08:15:31.017Z,30.05
2019-04-21T08:18:05.942Z,35.88
2019-04-21T08:20:24.700Z,31.23
2019-04-21T08:23:13.001Z,28.25
2019-04-21T08:25:30.786Z,26.70
2019-04-21T08:27:59.856Z,32.42
2019-04-21T08:30:32.115Z,32.45
2019-04-21T08:33:09.223Z,32.67
2019-04-21T08:36:01.162Z,26.73
2019-04-21T08:38:11.369Z,32.67
2019-04-21T08:40:45.798Z,26.55
2019-04-21T08:43:14.251Z,26.57
2019-04-21T08:45:43.302Z,28.12
2019-04-21T08:48:17.125Z,23.90
2019-04-21T08:50:45.979Z,28.23
2019-04-21T08:53:13.859Z,27.52
2019-04-21T08:56:12.298Z,29.92
2019-04-21T08:59:09.521Z,26.45
2019-04-21T09:04:13.189Z,27.42
2019-04-21T09:06:58.962Z,27.02
2019-04-21T09:09:16.750Z,25.72
2019-04-21T09:11:49.886Z,24.18
2019-04-21T09:14:20.786Z,30.57
2019-04-21T09:16:47.619Z,30.00
2019-04-21T09:19:35.262Z,25.00
2019-04-21T09:21:54.596Z,25.97
2019-04-21T09:24:41.227Z,29.52
2019-04-21T09:26:57.615Z,28.15
2019-04-21T09:29:21.885Z,32.00
2019-04-21T09:31:43.518Z,27.17
2019-04-21T09:34:20.624Z,25.92
2019-04-21T09:36:49.441Z,28.55
2019-04-21T09:39:20.091Z,25.72
2019-04-21T09:41:53.481Z,32.75
2019-04-21T09:44:27.615Z,25.30
2019-04-21T09:46:55.973Z,22.77
2019-04-21T09:49:27.149Z,18.20
2019-04-21T09:51:55.262Z,23.67
2019-04-21T09:54:29.826Z,21.05
2019-04-21T09:57:01.613Z,22.17
2019-04-21T09:59:33.564Z,20.60
2019-04-21T10:02:09.556Z,19.48
2019-04-21T10:04:33.512Z,23.02
2019-04-21T10:07:04.578Z,22.42
2019-04-21T10:09:35.592Z,23.95
2019-04-21T10:12:05.634Z,21.10
2019-04-21T10:14:36.594Z,20.43
2019-04-21T10:17:20.131Z,20.60
2019-04-21T10:19:50.697Z,20.40
2019-04-21T10:22:21.160Z,22.87
2019-04-21T10:24:52.160Z,25.50
2019-04-21T10:27:23.121Z,25.27
2019-04-21T10:29:53.968Z,20.80
2019-04-21T10:32:25.340Z,22.30
2019-04-21T10:34:55.393Z,24.70
2019-04-21T10:37:37.526Z,23.55
2019-04-21T10:39:57.773Z,23.25
2019-04-21T10:42:29.102Z,18.98
2019-04-21T10:44:59.014Z,21.40
2019-04-21T10:47:29.362Z,18.00
2019-04-21T10:50:00.486Z,19.42
2019-04-21T10:52:49.065Z,20.20
2019-04-21T10:55:36.736Z,18.92
2019-04-21T10:58:10.865Z,19.15
2019-04-21T11:00:43.995Z,22.85
2019-04-21T11:03:31.103Z,17.65
2019-04-21T11:06:03.234Z,18.45
2019-04-21T11:08:37.955Z,20.12
2019-04-21T11:11:07.848Z,18.80
2019-04-21T11:13:38.873Z,19.05
2019-04-21T11:16:09.070Z,16.93
2019-04-21T11:18:39.869Z,15.93
2019-04-21T11:21:11.101Z,16.80
2019-04-21T11:23:41.187Z,18.85
2019-04-21T11:26:12.003Z,18.35
2019-04-21T11:28:43.051Z,18.32
2019-04-21T11:31:13.323Z,24.72
2019-04-21T11:33:45.226Z,18.77
2019-04-21T11:36:15.707Z,16.07
2019-04-21T11:39:16.607Z,16.00
2019-04-21T11:41:34.148Z,15.83
2019-04-21T11:44:05.020Z,20.90
2019-04-21T11:46:36.314Z,17.17
2019-04-21T11:49:06.416Z,15.08
2019-04-21T11:51:37.304Z,15.68
2019-04-21T11:54:08.666Z,15.95
2019-04-21T11:56:39.276Z,16.73
2019-04-21T11:59:09.983Z,16.80
2019-04-21T12:01:39.901Z,16.27
2019-04-21T12:04:10.027Z,17.55
2019-04-21T12:06:44.463Z,18.48
2019-04-21T12:09:11.967Z,14.93
2019-04-21T12:11:43.134Z,18.12
2019-04-21T12:14:14.225Z,16.57
2019-04-21T12:16:44.337Z,16.00
2019-04-21T12:19:14.643Z,15.63
2019-04-21T12:21:54.577Z,20.08
2019-04-21T12:24:15.831Z,15.63
2019-04-21T12:26:46.356Z,14.83
2019-04-21T12:29:16.661Z,16.15
2019-04-21T12:32:05.637Z,15.10
2019-04-21T12:34:36.239Z,19.55
2019-04-21T12:37:06.715Z,14.25
2019-04-21T12:39:36.995Z,15.70
2019-04-21T12:42:08.815Z,18.52
2019-04-21T12:44:41.343Z,16.77
2019-04-21T12:47:12.012Z,14.80
2019-04-21T12:49:41.880Z,18.25
2019-04-21T12:52:11.662Z,20.25
2019-04-21T12:54:41.784Z,17.60
2019-04-21T12:57:11.793Z,19.20
2019-04-21T12:59:42.666Z,17.90
2019-04-21T13:02:13.736Z,22.15
2019-04-21T13:04:43.943Z,25.50
2019-04-21T13:07:15.278Z,20.25
2019-04-21T13:09:46.296Z,17.27
2019-04-21T13:12:17.810Z,18.25
2019-04-21T13:14:49.550Z,22.20
2019-04-21T13:17:19.604Z,18.95
2019-04-21T13:19:49.553Z,18.65
2019-04-21T13:22:19.468Z,18.02
2019-04-21T13:24:49.633Z,20.05
2019-04-21T13:27:20.640Z,22.30
2019-04-21T13:29:50.679Z,19.42
2019-04-21T13:32:20.542Z,22.37
2019-04-21T13:34:50.968Z,18.37
2019-04-21T13:37:21.480Z,19.12
2019-04-21T13:40:22.448Z,19.82
2019-04-21T13:42:36.345Z,22.82
2019-04-21T13:45:02.540Z,21.40
2019-04-21T13:47:32.487Z,23.00
2019-04-21T13:50:03.685Z,22.02
2019-04-21T13:52:34.058Z,22.30
2019-04-21T13:55:05.529Z,22.30
2019-04-21T13:57:36.613Z,21.50
2019-04-21T14:00:08.932Z,22.15
2019-04-21T14:02:40.659Z,22.77
2019-04-21T14:05:13.697Z,21.77
2019-04-21T14:07:43.986Z,20.50
2019-04-21T14:10:17.845Z,20.77
2019-04-21T14:12:48.924Z,22.67
2019-04-21T14:15:22.104Z,21.57
2019-04-21T14:17:53.098Z,21.23
2019-04-21T14:20:23.216Z,21.85
2019-04-21T14:22:53.988Z,25.00
2019-04-21T14:25:23.981Z,20.08
2019-04-21T14:27:54.583Z,21.85
2019-04-21T14:30:26.514Z,21.25
2019-04-21T14:32:57.841Z,20.72
2019-04-21T14:35:29.271Z,20.08
2019-04-21T14:38:00.272Z,23.47
2019-04-21T14:40:33.249Z,22.55
2019-04-21T14:43:02.659Z,21.73
2019-04-21T14:45:38.822Z,21.77
2019-04-21T14:48:23.257Z,22.50
2019-04-21T14:51:07.488Z,23.18
2019-04-21T14:53:57.254Z,24.07
2019-04-21T14:56:27.208Z,23.77
2019-04-21T14:58:58.996Z,26.57
2019-04-21T15:01:29.199Z,21.90
2019-04-21T15:03:59.790Z,20.72
2019-04-21T15:06:31.488Z,19.30
2019-04-21T15:09:01.455Z,21.97
2019-04-21T15:11:31.950Z,17.70
2019-04-21T15:14:02.079Z,19.82
2019-04-21T15:16:32.900Z,21.07
2019-04-21T15:19:04.430Z,22.37
2019-04-21T15:21:35.404Z,18.85
2019-04-21T15:24:06.532Z,20.62
2019-04-21T15:26:37.970Z,20.17
2019-04-21T15:29:08.863Z,23.87
2019-04-21T15:31:41.569Z,20.32
2019-04-21T15:34:11.103Z,20.72
2019-04-21T15:36:41.877Z,18.90
2019-04-21T15:39:11.979Z,21.23
2019-04-21T15:41:42.800Z,17.27
2019-04-21T15:44:12.792Z,19.37
2019-04-21T15:46:43.898Z,20.32
2019-04-21T15:49:14.968Z,16.42
2019-04-21T15:51:46.384Z,18.25
2019-04-21T15:54:18.532Z,18.30
2019-04-21T15:57:00.629Z,17.75
2019-04-21T15:59:36.811Z,18.57
2019-04-21T16:02:24.651Z,15.53
2019-04-21T16:04:54.853Z,16.85
2019-04-21T16:07:24.898Z,16.57
2019-04-21T16:09:55.116Z,16.05
2019-04-21T16:12:25.652Z,17.20
2019-04-21T16:14:56.571Z,18.57
2019-04-21T16:17:27.597Z,19.00
2019-04-21T16:19:59.737Z,19.07
2019-04-21T16:22:30.615Z,16.62
2019-04-21T16:25:00.935Z,21.33
2019-04-21T16:27:31.310Z,17.90
2019-04-21T16:30:01.949Z,16.80
2019-04-21T16:32:32.389Z,17.52
2019-04-21T16:35:08.264Z,19.45
2019-04-21T16:37:35.411Z,17.50
2019-04-21T16:40:09.482Z,19.42
2019-04-21T16:42:40.400Z,19.32
2019-04-21T16:45:12.396Z,21.40
2019-04-21T16:47:44.151Z,15.80
2019-04-21T16:50:15.895Z,19.85
2019-04-21T16:53:05.999Z,17.35
2019-04-21T16:55:44.948Z,17.70
2019-04-21T16:58:23.120Z,20.68
2019-04-21T17:01:00.901Z,22.80
2019-04-21T17:03:24.657Z,18.90
2019-04-21T17:05:54.456Z,19.35
2019-04-21T17:08:24.267Z,18.20
2019-04-21T17:11:05.598Z,20.25
2019-04-21T17:13:27.222Z,21.17
2019-04-21T17:16:15.205Z,19.45
2019-04-21T17:18:44.677Z,24.95
2019-04-21T17:21:02.658Z,18.27
2019-04-21T17:23:33.472Z,20.75
2019-04-21T17:26:03.574Z,16.07
2019-04-21T17:28:34.370Z,18.57
2019-04-21T17:31:04.759Z,18.07
2019-04-21T17:33:35.519Z,16.60
2019-04-21T17:36:07.171Z,20.88
2019-04-21T17:38:37.222Z,18.98
2019-04-21T17:41:19.318Z,21.45
2019-04-21T17:43:39.563Z,18.85
2019-04-21T17:46:13.577Z,21.17
2019-04-21T17:48:43.244Z,20.37
2019-04-21T17:51:15.711Z,20.80
2019-04-21T17:53:57.673Z,22.00
2019-04-21T17:56:53.751Z,22.85
2019-04-21T17:59:28.075Z,21.82
2019-04-21T18:01:54.540Z,19.48
2019-04-21T18:04:28.945Z,18.80
2019-04-21T18:06:56.492Z,21.57
2019-04-21T18:09:45.446Z,21.45
2019-04-21T18:12:13.623Z,21.82
2019-04-21T18:14:24.346Z,22.90
2019-04-21T18:16:56.294Z,26.25
2019-04-21T18:19:30.946Z,22.55
2019-04-21T18:22:08.903Z,26.68
2019-04-21T18:24:55.544Z,21.80
2019-04-21T18:27:15.693Z,24.60
2019-04-21T18:29:46.456Z,24.98
2019-04-21T18:32:26.382Z,22.13
2019-04-21T18:35:07.422Z,33.83
2019-04-21T18:37:45.796Z,30.02
2019-04-21T18:40:20.446Z,29.00
2019-04-21T18:48:22.001Z,23.87
2019-04-21T18:51:02.667Z,24.50
2019-04-21T18:53:44.184Z,24.98
2019-04-21T18:56:05.295Z,25.80
2019-04-21T18:58:32.558Z,26.70
2019-04-21T19:01:10.519Z,24.67
2019-04-21T19:03:41.064Z,22.00
2019-04-21T19:06:11.661Z,23.00
2019-04-21T19:08:59.997Z,22.58
2019-04-21T19:11:29.660Z,20.17
2019-04-21T19:14:28.559Z,23.10
2019-04-21T19:19:36.666Z,22.73
2019-04-21T19:21:40.282Z,22.98
2019-04-21T19:24:24.293Z,25.75
2019-04-21T19:26:58.796Z,17.48
2019-04-21T19:29:29.718Z,19.20
2019-04-21T19:31:54.962Z,18.02
2019-04-21T19:34:17.408Z,23.65
2019-04-21T19:36:46.742Z,24.90
2019-04-21T19:39:23.316Z,27.32
2019-04-21T19:41:58.386Z,31.42
2019-04-21T19:44:34.055Z,32.67
2019-04-21T19:47:10.731Z,32.17
2019-04-21T19:49:45.547Z,30.15
2019-04-21T19:52:01.994Z,33.53
2019-04-21T19:54:34.193Z,29.05
2019-04-21T19:56:58.685Z,34.38
2019-04-21T19:59:36.757Z,36.95
2019-04-21T20:02:00.878Z,53.98
2019-04-21T20:04:38.533Z,42.62
2019-04-21T20:07:22.107Z,35.73
2019-04-21T20:09:56.775Z,29.23
2019-04-21T20:12:34.493Z,21.75
2019-04-21T20:15:04.927Z,24.20
2019-04-21T20:17:32.476Z,31.82
2019-04-21T20:19:44.895Z,28.42
2019-04-21T20:22:16.759Z,24.55
2019-04-21T20:24:53.847Z,25.90
2019-04-21T20:27:31.144Z,24.10
2019-04-21T20:30:07.093Z,28.83
2019-04-21T20:32:53.398Z,24.75
2019-04-21T20:35:25.004Z,25.75
2019-04-21T20:37:48.021Z,27.65
2019-04-21T20:40:10.201Z,28.30
2019-04-21T20:42:47.122Z,26.65
2019-04-21T20:45:34.979Z,29.60
2019-04-21T20:47:46.289Z,28.67
2019-04-21T20:50:28.656Z,28.57
2019-04-21T20:53:06.042Z,33.10
2019-04-21T20:55:26.503Z,32.28
2019-04-21T20:57:59.592Z,28.27
2019-04-21T21:00:43.041Z,27.75
2019-04-21T21:03:12.196Z,32.78
2019-04-21T21:05:39.976Z,30.30
2019-04-21T21:08:16.946Z,36.73
2019-04-21T21:10:48.247Z,30.75
2019-04-21T21:13:26.700Z,34.10
2019-04-21T21:16:06.135Z,30.43
2019-04-21T21:18:51.842Z,34.48
2019-04-21T21:20:59.053Z,26.87
2019-04-21T21:23:29.096Z,29.75
2019-04-21T21:26:01.995Z,28.98
2019-04-21T21:28:26.621Z,26.45
2019-04-21T21:31:07.410Z,30.50
2019-04-21T21:33:46.882Z,29.70
2019-04-21T21:36:10.687Z,29.10
2019-04-21T21:38:43.506Z,26.55
2019-04-21T21:41:07.673Z,29.75
2019-04-21T21:43:30.474Z,32.98
2019-04-21T21:46:04.807Z,26.48
2019-04-21T21:48:47.594Z,31.12
2019-04-21T21:51:13.000Z,29.10
2019-04-21T21:53:38.762Z,29.82
2019-04-21T21:56:09.028Z,28.47
2019-04-21T21:58:43.918Z,27.22
2019-04-21T22:01:15.435Z,27.77
2019-04-21T22:03:48.895Z,33.58
2019-04-21T22:06:23.924Z,28.83
2019-04-21T22:08:54.475Z,29.07
2019-04-21T22:11:26.231Z,27.82
2019-04-21T22:14:02.777Z,25.77
2019-04-21T22:16:46.620Z,27.67
2019-04-21T22:19:19.293Z,28.17
2019-04-21T22:21:53.256Z,24.65
2019-04-21T22:24:20.299Z,30.30
2019-04-21T22:26:39.013Z,25.95
2019-04-21T22:29:10.017Z,33.48
2019-04-21T22:31:42.635Z,27.25
2019-04-21T22:34:15.803Z,24.25
2019-04-21T22:36:55.128Z,26.12
2019-04-21T22:39:35.005Z,25.20
2019-04-21T22:41:58.528Z,29.20
2019-04-21T22:44:22.602Z,29.70
2019-04-21T22:47:02.173Z,32.53
2019-04-21T22:49:26.419Z,23.85
2019-04-21T22:52:00.797Z,29.80
2019-04-21T22:54:35.452Z,26.45
2019-04-21T22:57:11.743Z,28.17
2019-04-21T22:59:35.644Z,23.67
2019-04-21T23:02:13.610Z,25.92
2019-04-21T23:04:43.750Z,28.90
2019-04-21T23:07:15.109Z,30.97
2019-04-21T23:09:43.340Z,27.17
2019-04-21T23:12:20.502Z,31.50
2019-04-21T23:14:55.491Z,24.30
2019-04-21T23:17:38.925Z,27.50
2019-04-21T23:20:10.528Z,29.50
2019-04-21T23:22:51.395Z,27.10
2019-04-21T23:25:12.386Z,27.95
2019-04-21T23:27:47.973Z,26.80
2019-04-21T23:30:20.149Z,29.35
2019-04-21T23:32:40.652Z,27.70
2019-04-21T23:35:09.077Z,26.25
2019-04-21T23:37:34.200Z,25.60
2019-04-21T23:40:12.651Z,29.42
2019-04-21T23:42:41.643Z,22.30
2019-04-21T23:45:10.628Z,26.30
2019-04-21T23:47:52.818Z,30.10
2019-04-21T23:50:24.752Z,26.35
2019-04-21T23:52:45.755Z,23.77
2019-04-21T23:55:18.982Z,26.57
2019-04-21T23:57:51.568Z,26.62
